createdAt,value
2023-01-04T00:01:30.920Z,12.30
2023-01-04T00:03:57.706Z,11.90
2023-01-04T00:06:24.423Z,12.60
2023-01-04T00:08:51.058Z,10.80
2023-01-04T00:11:19.710Z,10.60
2023-01-04T00:13:47.950Z,9.60
2023-01-04T00:16:17.035Z,9.30
2023-01-04T00:18:43.734Z,12.90
2023-01-04T00:21:12.397Z,9.80
2023-01-04T00:23:39.679Z,12.00
2023-01-04T00:26:08.724Z,12.00
2023-01-04T00:28:35.422Z,9.90
2023-01-04T00:31:03.883Z,10.30
2023-01-04T00:33:31.195Z,9.70
2023-01-04T00:36:05.324Z,13.00
2023-01-04T00:38:32.823Z,10.40
2023-01-04T00:41:00.016Z,11.60
2023-01-04T00:43:26.825Z,9.30
2023-01-04T00:45:53.927Z,13.20
2023-01-04T00:48:20.962Z,11.10
2023-01-04T00:50:48.306Z,10.20
2023-01-04T00:53:15.489Z,10.60
2023-01-04T00:55:42.227Z,8.10
2023-01-04T00:58:08.885Z,10.30
2023-01-04T01:00:35.673Z,6.60
2023-01-04T01:03:02.694Z,7.90
2023-01-04T01:05:29.662Z,6.80
2023-01-04T01:07:56.733Z,6.80
2023-01-04T01:10:23.348Z,8.10
2023-01-04T01:12:50.029Z,6.40
2023-01-04T01:15:16.803Z,6.50
2023-01-04T01:17:43.483Z,8.10
2023-01-04T01:20:10.403Z,6.30
2023-01-04T01:22:37.088Z,7.10
2023-01-04T01:25:04.135Z,6.90
2023-01-04T01:27:30.772Z,7.30
2023-01-04T01:29:57.456Z,8.50
2023-01-04T01:32:24.098Z,7.50
2023-01-04T01:34:50.829Z,6.70
2023-01-04T01:37:17.518Z,9.90
2023-01-04T01:39:44.188Z,6.80
2023-01-04T01:42:19.195Z,6.30
2023-01-04T01:44:45.893Z,7.10
2023-01-04T01:47:17.372Z,5.70
2023-01-04T01:49:44.046Z,5.70
2023-01-04T01:52:13.484Z,7.00
2023-01-04T01:55:10.492Z,7.20
2023-01-04T01:57:37.824Z,5.80
2023-01-04T02:00:09.517Z,6.60
2023-01-04T02:03:04.901Z,7.20
2023-01-04T02:05:31.740Z,7.20
2023-01-04T02:07:58.978Z,6.10
2023-01-04T02:10:25.650Z,5.80
2023-01-04T02:12:52.929Z,6.20
2023-01-04T02:15:19.860Z,5.50
2023-01-04T02:17:56.604Z,6.40
2023-01-04T02:20:33.066Z,7.40
2023-01-04T02:23:18.767Z,7.20
2023-01-04T02:26:10.479Z,7.30
2023-01-04T02:29:05.938Z,7.10
2023-01-04T02:31:45.487Z,7.50
2023-01-04T02:34:37.259Z,5.90
2023-01-04T02:37:22.433Z,6.50
2023-01-04T02:39:55.939Z,5.80
2023-01-04T02:42:56.040Z,6.10
2023-01-04T02:45:25.840Z,5.10
2023-01-04T02:48:11.304Z,4.90
2023-01-04T02:50:49.121Z,5.70
2023-01-04T02:53:18.905Z,5.40
2023-01-04T02:56:04.060Z,5.40
2023-01-04T02:59:04.502Z,6.60
2023-01-04T03:02:11.888Z,7.30
2023-01-04T03:04:57.752Z,5.50
2023-01-04T03:07:42.208Z,6.20
2023-01-04T03:10:13.814Z,5.80
2023-01-04T03:12:51.233Z,5.60
2023-01-04T03:15:26.643Z,5.80
2023-01-04T03:17:56.476Z,6.60
2023-01-04T03:20:23.474Z,5.80
2023-01-04T03:23:24.179Z,5.70
2023-01-04T03:26:13.744Z,5.00
2023-01-04T03:28:59.253Z,5.60
2023-01-04T03:32:08.804Z,5.60
2023-01-04T03:34:54.249Z,5.90
2023-01-04T03:37:42.940Z,5.30
2023-01-04T03:40:45.866Z,7.10
2023-01-04T03:43:39.513Z,6.50
2023-01-04T03:46:29.509Z,6.00
2023-01-04T03:49:02.829Z,6.50
2023-01-04T03:51:31.069Z,7.00
2023-01-04T03:54:07.687Z,5.60
2023-01-04T03:56:36.216Z,6.10
2023-01-04T03:59:03.015Z,5.80
2023-01-04T04:01:29.858Z,5.40
2023-01-04T04:04:15.579Z,9.70
2023-01-04T04:07:01.127Z,7.30
2023-01-04T04:09:27.845Z,8.60
2023-01-04T04:11:54.631Z,8.40
2023-01-04T04:14:21.290Z,9.80
2023-01-04T04:16:48.009Z,8.50
2023-01-04T04:19:15.080Z,6.40
2023-01-04T04:21:41.930Z,9.70
2023-01-04T04:24:11.676Z,9.40
2023-01-04T04:26:38.361Z,12.60
2023-01-04T04:29:04.993Z,9.70
2023-01-04T04:32:57.840Z,9.10
2023-01-04T04:35:24.525Z,9.40
2023-01-04T04:37:51.195Z,9.20
2023-01-04T04:40:36.703Z,12.50
2023-01-04T04:43:03.379Z,11.70
2023-01-04T04:45:30.063Z,8.80
2023-01-04T04:47:56.785Z,11.60
2023-01-04T04:50:23.511Z,8.00
2023-01-04T04:52:55.739Z,11.60
2023-01-04T04:55:23.362Z,8.90
2023-01-04T04:57:49.999Z,9.70
2023-01-04T05:00:16.912Z,11.40
2023-01-04T05:02:43.970Z,11.80
2023-01-04T05:05:10.730Z,11.20
2023-01-04T05:07:37.449Z,12.70
2023-01-04T05:10:04.687Z,14.30
2023-01-04T05:12:54.320Z,12.50
2023-01-04T05:15:24.396Z,10.90
2023-01-04T05:17:51.024Z,8.10
2023-01-04T05:20:17.825Z,8.20
2023-01-04T05:22:44.614Z,10.70
2023-01-04T05:25:12.364Z,9.80
2023-01-04T05:27:39.122Z,9.10
2023-01-04T05:30:24.892Z,9.10
2023-01-04T05:32:51.535Z,9.10
2023-01-04T05:35:18.195Z,12.10
2023-01-04T05:37:44.853Z,11.20
2023-01-04T05:40:11.562Z,10.60
2023-01-04T05:42:38.226Z,9.70
2023-01-04T05:45:05.628Z,8.80
2023-01-04T05:47:32.393Z,7.50
2023-01-04T05:49:59.132Z,10.50
2023-01-04T05:52:26.092Z,12.60
2023-01-04T05:54:52.791Z,9.90
2023-01-04T05:57:19.472Z,12.90
2023-01-04T05:59:46.294Z,12.80
2023-01-04T06:02:15.243Z,10.50
2023-01-04T06:04:41.989Z,9.80
2023-01-04T06:07:08.657Z,8.10
2023-01-04T06:09:35.308Z,9.40
2023-01-04T06:12:02.022Z,9.90
2023-01-04T06:14:28.667Z,9.30
2023-01-04T06:16:55.388Z,7.10
2023-01-04T06:19:22.063Z,6.90
2023-01-04T06:21:48.733Z,9.80
2023-01-04T06:24:15.434Z,7.90
2023-01-04T06:26:42.127Z,7.60
2023-01-04T06:29:08.792Z,8.40
2023-01-04T06:31:35.571Z,9.40
2023-01-04T06:34:02.445Z,11.60
2023-01-04T06:36:29.416Z,11.60
2023-01-04T06:39:00.181Z,9.30
2023-01-04T06:41:27.168Z,9.70
2023-01-04T06:43:53.784Z,9.60
2023-01-04T06:46:20.591Z,8.00
2023-01-04T06:48:47.315Z,9.00
2023-01-04T06:51:14.080Z,12.90
2023-01-04T06:53:41.445Z,21.90
2023-01-04T06:56:09.412Z,15.00
2023-01-04T06:58:36.657Z,8.40
2023-01-04T07:01:03.593Z,8.50
2023-01-04T07:03:30.447Z,14.50
2023-01-04T07:05:57.074Z,9.30
2023-01-04T07:08:23.730Z,10.80
2023-01-04T07:10:50.442Z,9.60
2023-01-04T07:13:17.181Z,7.80
2023-01-04T07:15:44.032Z,9.50
2023-01-04T07:18:10.979Z,12.00
2023-01-04T07:20:38.168Z,11.30
2023-01-04T07:23:05.630Z,10.00
2023-01-04T07:25:32.395Z,11.10
2023-01-04T07:27:59.177Z,11.90
2023-01-04T07:30:25.830Z,10.80
2023-01-04T07:32:53.703Z,12.00
2023-01-04T07:35:20.724Z,10.20
2023-01-04T07:37:52.147Z,10.30
2023-01-04T07:40:22.700Z,10.60
2023-01-04T07:42:54.879Z,9.90
2023-01-04T07:45:21.606Z,12.80
2023-01-04T07:47:48.321Z,8.70
2023-01-04T07:50:15.113Z,12.90
2023-01-04T07:52:41.806Z,11.50
2023-01-04T07:55:09.060Z,12.60
2023-01-04T07:57:35.800Z,13.90
2023-01-04T08:00:02.916Z,15.80
2023-01-04T08:02:39.086Z,13.10
2023-01-04T08:05:06.553Z,11.00
2023-01-04T08:07:33.322Z,8.70
2023-01-04T08:09:59.960Z,8.50
2023-01-04T08:12:26.704Z,10.90
2023-01-04T08:14:53.357Z,9.30
2023-01-04T08:17:20.045Z,11.90
2023-01-04T08:19:46.935Z,9.40
2023-01-04T08:22:14.289Z,10.00
2023-01-04T08:24:40.981Z,10.40
2023-01-04T08:27:08.581Z,10.40
2023-01-04T08:29:35.573Z,9.60
2023-01-04T08:32:02.550Z,12.20
2023-01-04T08:34:29.999Z,10.10
2023-01-04T08:36:56.721Z,8.60
2023-01-04T08:39:23.440Z,10.90
2023-01-04T08:42:00.393Z,12.10
2023-01-04T08:44:28.191Z,10.40
2023-01-04T08:46:55.204Z,11.00
2023-01-04T08:49:22.791Z,12.10
2023-01-04T08:51:49.493Z,10.20
2023-01-04T08:54:16.316Z,8.60
2023-01-04T08:56:43.090Z,9.50
2023-01-04T08:59:10.628Z,7.70
2023-01-04T09:01:37.425Z,8.30
2023-01-04T09:04:04.304Z,8.40
2023-01-04T09:06:31.295Z,7.70
2023-01-04T09:08:58.105Z,7.30
2023-01-04T09:11:24.989Z,7.70
2023-01-04T09:14:06.900Z,8.00
2023-01-04T09:16:34.612Z,9.40
2023-01-04T09:19:01.267Z,8.40
2023-01-04T09:21:28.414Z,9.30
2023-01-04T09:23:56.857Z,9.50
2023-01-04T09:26:23.761Z,9.00
2023-01-04T09:28:51.523Z,8.00
2023-01-04T09:31:19.700Z,8.00
2023-01-04T09:36:33.350Z,7.70
2023-01-04T09:38:59.973Z,8.10
2023-01-04T09:41:28.454Z,7.10
2023-01-04T09:43:57.182Z,8.40
2023-01-04T09:46:29.001Z,7.70
2023-01-04T09:49:04.930Z,10.00
2023-01-04T09:51:33.655Z,7.50
2023-01-04T09:54:12.361Z,7.10
2023-01-04T09:56:39.028Z,7.70
2023-01-04T09:59:12.511Z,8.80
2023-01-04T10:01:43.913Z,10.00
2023-01-04T10:04:42.163Z,7.40
2023-01-04T10:07:18.411Z,7.30
2023-01-04T10:09:45.081Z,6.90
2023-01-04T10:12:59.942Z,7.90
2023-01-04T10:15:37.274Z,6.90
2023-01-04T12:18:52.561Z,7.90
2023-01-04T12:21:24.120Z,8.80
2023-01-04T12:23:53.788Z,6.20
2023-01-04T12:26:20.707Z,6.20
2023-01-04T12:28:49.259Z,6.80
2023-01-04T12:31:19.912Z,7.40
2023-01-04T12:34:14.118Z,6.50
2023-01-04T12:36:41.209Z,5.90
2023-01-04T12:39:14.206Z,7.40
2023-01-04T12:41:40.797Z,8.80
2023-01-04T12:44:36.945Z,7.80
2023-01-04T12:47:43.275Z,7.00
2023-01-04T12:50:18.398Z,8.50
2023-01-04T12:55:43.788Z,8.30
2023-01-04T12:59:23.503Z,9.00
2023-01-04T13:01:23.930Z,10.20
2023-01-04T13:03:58.017Z,10.60
2023-01-04T13:06:28.956Z,10.70
2023-01-04T13:08:55.762Z,10.20
2023-01-04T13:11:33.345Z,12.00
2023-01-04T13:14:08.682Z,10.90
2023-01-04T13:16:44.678Z,16.60
2023-01-04T13:19:26.471Z,14.40
2023-01-04T13:21:53.180Z,8.90
2023-01-04T13:24:27.459Z,11.00
2023-01-04T13:26:54.637Z,11.20
2023-01-04T13:29:25.433Z,8.20
2023-01-04T13:32:11.909Z,10.70
2023-01-04T13:34:41.389Z,12.10
2023-01-04T13:37:13.966Z,8.20
2023-01-04T13:48:22.411Z,8.70
2023-01-04T13:51:01.555Z,16.40
2023-01-04T13:53:30.084Z,18.80
2023-01-04T13:56:00.391Z,15.00
2023-01-04T13:58:31.126Z,13.20
2023-01-04T14:04:21.522Z,27.00
2023-01-04T14:06:49.410Z,17.90
2023-01-04T14:09:22.914Z,14.30
2023-01-04T14:12:09.354Z,17.00
2023-01-04T14:14:58.893Z,12.80
2023-01-04T14:17:36.117Z,12.80
2023-01-04T14:20:05.758Z,31.40
2023-01-04T14:22:33.446Z,35.70
2023-01-04T14:25:10.500Z,30.00
2023-01-04T14:27:43.014Z,21.20
2023-01-04T14:30:19.681Z,13.90
2023-01-04T14:33:04.287Z,10.80
2023-01-04T14:35:31.991Z,11.80
2023-01-04T14:38:03.945Z,10.00
2023-01-04T14:40:34.403Z,9.00
2023-01-04T14:43:02.060Z,9.90
2023-01-04T14:45:29.677Z,9.80
2023-01-04T14:47:57.080Z,11.40
2023-01-04T14:50:24.720Z,9.10
2023-01-04T14:52:52.707Z,12.60
2023-01-04T14:55:20.565Z,15.50
2023-01-04T14:57:48.169Z,17.30
2023-01-04T15:00:19.469Z,12.90
2023-01-04T15:02:51.086Z,10.90
2023-01-04T15:05:20.662Z,14.20
2023-01-04T15:07:49.230Z,15.00
2023-01-04T15:10:23.945Z,13.90
2023-01-04T15:12:51.745Z,12.50
2023-01-04T15:15:19.880Z,9.20
2023-01-04T15:17:47.774Z,10.10
2023-01-04T15:20:16.012Z,9.10
2023-01-04T15:22:46.887Z,8.70
2023-01-04T15:25:14.834Z,7.50
2023-01-04T15:27:43.277Z,8.30
2023-01-04T15:30:14.877Z,9.70
2023-01-04T15:32:43.703Z,9.30
2023-01-04T15:35:11.516Z,11.80
2023-01-04T15:37:39.072Z,11.60
2023-01-04T15:40:07.211Z,13.30
2023-01-04T15:42:53.435Z,9.80
2023-01-04T15:45:23.286Z,13.60
2023-01-04T15:47:51.455Z,16.40
2023-01-04T15:50:20.142Z,14.30
2023-01-04T15:52:50.987Z,14.00
2023-01-04T15:55:18.611Z,11.10
2023-01-04T16:01:42.012Z,9.10
2023-01-04T16:04:14.268Z,9.50
2023-01-04T16:06:42.395Z,9.90
2023-01-04T16:09:10.004Z,10.60
2023-01-04T16:11:57.751Z,10.10
2023-01-04T16:14:25.376Z,10.80
2023-01-04T16:16:52.832Z,11.00
2023-01-04T16:19:20.418Z,11.20
2023-01-04T16:21:48.067Z,12.10
2023-01-04T16:24:37.425Z,11.10
2023-01-04T16:27:03.762Z,11.30
2023-01-04T16:29:31.232Z,15.80
2023-01-04T16:31:59.442Z,14.40
2023-01-04T16:34:27.315Z,12.00
2023-01-04T16:36:55.117Z,10.40
2023-01-04T16:39:34.328Z,11.70
2023-01-04T16:42:11.306Z,12.30
2023-01-04T16:44:39.292Z,12.20
2023-01-04T16:47:07.028Z,13.50
2023-01-04T16:49:34.736Z,17.00
2023-01-04T16:52:03.238Z,19.70
2023-01-04T16:54:30.879Z,22.60
2023-01-04T16:56:59.564Z,22.90
2023-01-04T16:59:27.522Z,19.70
2023-01-04T17:01:58.109Z,18.50
2023-01-04T17:04:26.456Z,19.30
2023-01-04T17:06:55.509Z,34.80
2023-01-04T17:09:22.995Z,43.80
2023-01-04T17:15:08.043Z,40.90
2023-01-04T17:17:38.506Z,37.80
2023-01-04T17:20:08.283Z,46.00
2023-01-04T17:22:35.993Z,37.50
2023-01-04T17:25:04.468Z,35.50
2023-01-04T17:27:32.034Z,24.60
2023-01-04T17:30:00.895Z,29.80
2023-01-04T17:32:29.132Z,33.90
2023-01-04T17:34:58.626Z,28.30
2023-01-04T17:37:26.865Z,28.00
2023-01-04T17:39:55.554Z,23.40
2023-01-04T17:42:23.534Z,24.80
2023-01-04T17:44:51.901Z,27.10
2023-01-04T17:47:20.075Z,26.30
2023-01-04T17:49:47.617Z,22.80
2023-01-04T17:52:22.037Z,18.70
2023-01-04T17:54:49.863Z,18.50
2023-01-04T17:57:17.486Z,17.40
2023-01-04T17:59:45.025Z,18.70
2023-01-04T18:02:13.806Z,18.10
2023-01-04T20:15:13.443Z,24.20
2023-01-04T20:17:40.333Z,22.10
2023-01-04T20:20:07.174Z,20.60
2023-01-04T20:22:33.974Z,20.40
2023-01-04T20:25:00.643Z,19.80
2023-01-04T20:27:27.286Z,20.30
2023-01-04T20:29:53.958Z,20.20
2023-01-04T20:32:20.645Z,21.50
2023-01-04T20:34:47.299Z,26.60
2023-01-04T20:37:13.969Z,30.10
2023-01-04T20:39:40.608Z,24.50
2023-01-04T20:42:26.010Z,24.90
2023-01-04T20:44:52.688Z,24.00
2023-01-04T20:47:19.357Z,23.70
2023-01-04T20:49:49.135Z,24.10
2023-01-04T20:52:15.915Z,23.00
2023-01-04T20:54:43.402Z,25.30
2023-01-04T20:57:10.140Z,21.70
2023-01-04T20:59:36.827Z,25.20
2023-01-04T21:02:03.762Z,21.20
2023-01-04T21:04:31.985Z,21.20
2023-01-04T21:06:58.740Z,23.50
2023-01-04T21:09:25.582Z,23.30
2023-01-04T21:11:52.253Z,17.20
2023-01-04T21:14:19.063Z,15.80
2023-01-04T21:16:45.727Z,17.80
2023-01-04T21:19:12.400Z,17.70
2023-01-04T21:21:39.262Z,18.60
2023-01-04T21:24:06.582Z,17.90
2023-01-04T21:26:33.298Z,16.40
2023-01-04T21:29:00.013Z,16.10
2023-01-04T21:31:26.777Z,16.80
2023-01-04T21:33:53.850Z,16.30
2023-01-04T21:36:24.777Z,20.80
2023-01-04T21:38:52.601Z,16.90
2023-01-04T21:41:19.335Z,15.00
2023-01-04T21:43:46.071Z,14.90
2023-01-04T21:46:14.997Z,14.30
2023-01-04T21:48:42.505Z,14.40
2023-01-04T21:51:09.374Z,15.70
2023-01-04T21:53:36.838Z,13.00
2023-01-04T21:56:17.329Z,14.10
2023-01-04T21:58:44.154Z,15.50
2023-01-04T22:01:11.821Z,15.70
2023-01-04T22:03:39.053Z,15.80
2023-01-04T22:06:06.028Z,14.60
2023-01-04T22:08:32.731Z,14.80
2023-01-04T22:10:59.484Z,14.30
2023-01-04T22:13:26.230Z,13.30
2023-01-04T22:15:53.152Z,12.70
2023-01-04T22:18:19.917Z,13.30
2023-01-04T22:20:46.761Z,13.20
2023-01-04T22:23:13.588Z,13.30
2023-01-04T22:25:40.321Z,13.30
2023-01-04T22:28:06.983Z,13.70
2023-01-04T22:30:33.698Z,14.20
2023-01-04T22:33:00.368Z,12.80
2023-01-04T22:35:27.030Z,12.30
2023-01-04T22:37:53.784Z,12.40
2023-01-04T22:40:20.476Z,11.10
2023-01-04T22:42:47.123Z,12.50
2023-01-04T22:45:13.861Z,12.60
2023-01-04T22:47:40.574Z,12.10
2023-01-04T22:50:07.723Z,13.20
2023-01-04T22:52:34.467Z,14.80
2023-01-04T22:55:01.121Z,13.30
2023-01-04T22:57:27.795Z,13.70
2023-01-04T22:59:54.483Z,13.10
2023-01-04T23:02:21.141Z,11.90
2023-01-04T23:04:47.763Z,12.10
2023-01-04T23:07:14.489Z,10.90
2023-01-04T23:09:41.411Z,11.30
2023-01-04T23:12:08.142Z,10.50
2023-01-04T23:14:34.893Z,11.60
2023-01-04T23:17:01.873Z,10.40
2023-01-04T23:19:28.883Z,10.80
2023-01-04T23:21:55.661Z,12.30
2023-01-04T23:24:22.369Z,11.20
2023-01-04T23:26:49.080Z,10.90
2023-01-04T23:29:15.751Z,11.00
2023-01-04T23:31:42.459Z,9.90
2023-01-04T23:34:10.265Z,9.70
2023-01-04T23:36:38.296Z,9.10
2023-01-04T23:39:07.337Z,9.80
2023-01-04T23:41:46.511Z,10.00
2023-01-04T23:44:16.745Z,10.50
2023-01-04T23:46:43.721Z,9.90
2023-01-04T23:49:11.277Z,10.10
2023-01-04T23:51:37.989Z,10.70
2023-01-04T23:54:05.897Z,10.00
2023-01-04T23:56:32.605Z,10.80
2023-01-04T23:58:59.263Z,9.20
